createdAt,value
2022-10-01T00:02:18.998Z,7.00
2022-10-01T00:12:18.927Z,7.70
2022-10-01T00:22:18.733Z,6.60
2022-10-01T00:32:18.340Z,6.90
2022-10-01T00:42:18.093Z,8.00
2022-10-01T00:52:17.836Z,6.40
2022-10-01T01:02:17.663Z,6.40
2022-10-01T01:12:17.432Z,7.40
2022-10-01T01:22:17.247Z,6.70
2022-10-01T01:32:17.007Z,6.60
2022-10-01T01:42:16.793Z,7.20
2022-10-01T01:52:16.563Z,7.90
2022-10-01T02:02:20.635Z,7.50
2022-10-01T02:12:16.311Z,7.20
2022-10-01T02:22:15.875Z,6.30
2022-10-01T02:32:15.413Z,6.50
2022-10-01T02:42:15.070Z,7.30
2022-10-01T02:52:14.837Z,7.10
2022-10-01T03:02:14.483Z,6.40
2022-10-01T03:12:14.019Z,6.70
2022-10-01T03:22:13.688Z,7.50
2022-10-01T03:32:13.495Z,7.80
2022-10-01T03:42:13.302Z,6.00
2022-10-01T03:52:13.032Z,6.40
2022-10-01T04:02:13.207Z,6.90
2022-10-01T04:12:12.640Z,6.60
2022-10-01T04:22:12.296Z,5.20
2022-10-01T04:32:12.062Z,5.10
2022-10-01T04:42:11.609Z,5.10
2022-10-01T04:52:11.321Z,4.40
2022-10-01T05:02:11.090Z,3.40
2022-10-01T05:12:10.711Z,3.00
2022-10-01T05:22:10.558Z,3.30
2022-10-01T05:32:10.201Z,2.50
2022-10-01T05:42:10.162Z,3.90
2022-10-01T05:52:09.341Z,2.50
2022-10-01T06:02:09.365Z,2.30
2022-10-01T06:12:08.841Z,2.00
2022-10-01T06:22:08.676Z,1.90
2022-10-01T06:32:08.199Z,2.00
2022-10-01T06:42:07.894Z,2.20
2022-10-01T06:52:07.394Z,2.20
2022-10-01T07:02:07.181Z,2.30
2022-10-01T07:12:07.124Z,2.40
2022-10-01T07:22:06.688Z,2.00
2022-10-01T07:32:06.260Z,2.00
2022-10-01T07:42:06.028Z,2.70
2022-10-01T07:52:08.639Z,2.70
2022-10-01T08:02:05.740Z,2.60
2022-10-01T08:12:05.212Z,2.60
2022-10-01T08:22:04.774Z,2.60
2022-10-01T08:32:04.713Z,2.80
2022-10-01T08:42:04.343Z,3.50
2022-10-01T08:52:03.853Z,5.90
2022-10-01T09:02:03.588Z,3.50
2022-10-01T09:12:03.299Z,4.00
2022-10-01T09:22:03.228Z,5.90
2022-10-01T09:32:03.020Z,5.80
2022-10-01T09:42:03.070Z,5.80
2022-10-01T09:52:02.612Z,5.20
2022-10-01T10:02:02.553Z,6.20
2022-10-01T10:12:02.124Z,5.30
2022-10-01T10:22:02.146Z,4.90
2022-10-01T10:32:01.979Z,6.20
2022-10-01T10:42:01.736Z,5.10
2022-10-01T10:52:01.597Z,4.80
2022-10-01T11:02:01.630Z,6.60
2022-10-01T11:12:01.390Z,7.00
2022-10-01T11:22:01.371Z,7.10
2022-10-01T11:32:01.332Z,7.20
2022-10-01T11:42:01.318Z,8.60
2022-10-01T11:52:01.367Z,7.30
2022-10-01T12:02:01.536Z,5.70
2022-10-01T12:12:01.527Z,6.80
2022-10-01T12:22:01.634Z,8.20
2022-10-01T12:32:01.726Z,7.40
2022-10-01T12:42:02.147Z,7.50
2022-10-01T12:52:01.927Z,6.50
2022-10-01T13:02:07.250Z,9.40
2022-10-01T13:12:07.053Z,7.90
2022-10-01T13:22:06.544Z,5.20
2022-10-01T13:32:06.008Z,5.70
2022-10-01T13:42:05.664Z,6.50
2022-10-01T13:52:05.299Z,7.90
2022-10-01T14:02:05.051Z,10.20
2022-10-01T14:12:04.712Z,8.60
2022-10-01T14:22:04.213Z,7.80
2022-10-01T14:32:03.852Z,7.20
2022-10-01T14:42:03.645Z,7.50
2022-10-01T14:52:03.117Z,8.20
2022-10-01T15:02:03.109Z,8.30
2022-10-01T15:12:03.054Z,8.50
2022-10-01T15:22:03.032Z,7.00
2022-10-01T15:32:02.858Z,9.20
2022-10-01T15:42:02.910Z,6.10
2022-10-01T15:52:03.101Z,6.70
2022-10-01T16:02:03.449Z,6.20
2022-10-01T16:12:03.138Z,11.30
2022-10-01T16:22:03.205Z,7.80
2022-10-01T16:32:03.363Z,8.10
2022-10-01T16:42:22.617Z,7.50
2022-10-01T16:52:03.257Z,6.60
2022-10-01T17:02:03.295Z,7.70
2022-10-01T17:12:03.395Z,7.20
2022-10-01T17:22:03.419Z,6.10
2022-10-01T17:32:03.432Z,7.50
2022-10-01T17:42:03.171Z,7.00
2022-10-01T17:52:03.093Z,7.00
2022-10-01T18:02:10.579Z,6.00
2022-10-01T18:12:03.054Z,7.30
2022-10-01T18:22:03.180Z,7.30
2022-10-01T18:32:03.015Z,7.10
2022-10-01T18:42:02.991Z,6.40
2022-10-01T18:52:02.918Z,5.50
2022-10-01T19:02:02.928Z,8.80
2022-10-01T19:12:02.706Z,14.30
2022-10-01T19:22:02.610Z,8.40
2022-10-01T19:32:02.522Z,9.20
2022-10-01T19:42:02.459Z,9.80
2022-10-01T19:52:02.375Z,7.80
2022-10-01T20:02:03.603Z,8.40
2022-10-01T20:12:02.162Z,7.60
2022-10-01T20:22:02.208Z,8.70
2022-10-01T20:32:02.085Z,7.40
2022-10-01T20:42:01.892Z,6.80
2022-10-01T20:52:01.600Z,7.20
2022-10-01T21:02:01.494Z,9.20
2022-10-01T21:12:01.443Z,8.20
2022-10-01T21:22:01.096Z,6.30
2022-10-01T21:32:01.150Z,9.90
2022-10-01T21:42:00.682Z,10.10
2022-10-01T21:52:00.611Z,9.40
2022-10-01T22:02:00.521Z,10.90
2022-10-01T22:12:00.106Z,9.20
2022-10-01T22:21:59.639Z,7.40
2022-10-01T22:31:59.440Z,8.50
2022-10-01T22:41:59.538Z,8.40
2022-10-01T22:51:58.919Z,9.40
2022-10-01T23:01:58.927Z,8.00
2022-10-01T23:11:58.469Z,9.90
2022-10-01T23:21:58.540Z,9.00
2022-10-01T23:31:57.993Z,12.10
2022-10-01T23:41:57.890Z,13.80
2022-10-01T23:51:57.475Z,12.40
